Time;durP1;ratioP1;P1;durP2;ratioP2;P2;SDS_P1;SDS_P2;PMS_P1;PMS_P2;Temp;Humidity;BMP_temperature;BMP_pressure;BME280_temperature;BME280_humidity;BME280_pressure;Samples;Min_cycle;Max_cycle;Signal;HPM_P1;HPM_P2
2021/12/18 00:01:38;;;;;;;26.73;13.85;;;7.50;99.90;;;8.45;100.00;102880.25;5003680;28;20034;-83
2021/12/18 00:04:08;;;;;;;26.10;14.32;;;7.50;99.90;;;8.47;100.00;102882.75;4998807;28;20034;-83
2021/12/18 00:06:34;;;;;;;26.92;13.90;;;7.50;99.90;;;8.45;100.00;102874.66;5015877;28;20406;-82
2021/12/18 00:09:00;;;;;;;26.38;13.27;;;7.50;99.90;;;8.45;100.00;102879.41;4998519;28;20030;-82
2021/12/18 00:11:27;;;;;;;22.30;12.38;;;7.40;99.90;;;8.42;100.00;102879.97;4997247;28;20130;-82
2021/12/18 00:13:53;;;;;;;26.92;13.55;;;7.40;99.90;;;8.44;100.00;102892.50;4997059;28;20041;-82
2021/12/18 00:16:19;;;;;;;23.75;13.68;;;7.40;99.90;;;8.40;100.00;102882.25;5000853;28;20029;-83
2021/12/18 00:18:48;;;;;;;28.08;14.68;;;7.40;99.90;;;8.41;100.00;102887.50;5014632;28;20041;-83
2021/12/18 00:21:17;;;;;;;26.75;15.18;;;7.40;99.90;;;8.39;100.00;102875.84;5008324;28;20401;-84
2021/12/18 00:23:46;;;;;;;33.60;16.63;;;7.40;99.90;;;8.34;100.00;102883.41;4998576;28;20461;-85
2021/12/18 00:26:13;;;;;;;26.90;14.15;;;7.40;99.90;;;8.35;100.00;102882.25;4999344;28;20041;-87
2021/12/18 00:28:39;;;;;;;26.90;15.48;;;7.40;99.90;;;8.37;100.00;102880.88;4998422;28;20018;-84
2021/12/18 00:31:09;;;;;;;27.02;14.48;;;7.40;99.90;;;8.36;100.00;102881.16;4998497;28;20034;-82
2021/12/18 00:33:35;;;;;;;29.05;15.18;;;7.40;99.90;;;8.33;100.00;102877.00;4997674;28;20030;-83
2021/12/18 00:36:01;;;;;;;28.98;16.80;;;7.40;99.90;;;8.32;100.00;102872.53;5016172;28;20033;-83
2021/12/18 00:38:30;;;;;;;28.45;14.88;;;7.30;99.90;;;8.31;100.00;102870.91;5015812;28;20061;-82
2021/12/18 00:44:02;;;;;;;40.47;17.80;;;7.30;99.90;;;8.34;100.00;102864.75;4993660;28;20042;-82
2021/12/18 00:46:41;;;;;;;35.80;16.85;;;7.30;99.90;;;8.25;100.00;102874.78;4996806;28;20485;-83
2021/12/18 00:49:19;;;;;;;38.35;17.45;;;7.30;99.90;;;8.25;100.00;102873.97;5013497;28;20105;-81
2021/12/18 00:51:46;;;;;;;34.35;16.80;;;7.30;99.90;;;8.30;100.00;102873.94;4996786;28;20121;-84
2021/12/18 00:54:12;;;;;;;29.20;14.88;;;7.30;99.90;;;8.34;100.00;102877.81;4996748;28;20033;-85
2021/12/18 00:56:41;;;;;;;30.90;14.48;;;7.30;99.90;;;8.32;100.00;102875.31;5015844;28;20056;-84
2021/12/18 00:59:07;;;;;;;28.33;14.20;;;7.30;99.90;;;8.31;100.00;102872.84;4997196;28;20072;-84
2021/12/18 01:01:33;;;;;;;36.25;16.88;;;7.30;99.90;;;8.29;100.00;102881.47;4997008;28;20056;-82
2021/12/18 01:04:00;;;;;;;46.05;18.45;;;7.30;99.90;;;8.25;100.00;102883.13;4997195;28;20033;-82
2021/12/18 01:06:27;;;;;;;33.58;14.43;;;7.30;99.90;;;8.30;100.00;102887.88;5013935;28;20076;-83
2021/12/18 01:08:59;;;;;;;46.20;16.42;;;7.30;99.90;;;8.30;100.00;102890.66;5014430;28;20105;-85
2021/12/18 01:14:34;;;;;;;34.72;15.13;;;7.30;99.90;;;8.31;100.00;102898.75;5014785;28;20091;-80
2021/12/18 01:27:36;;;;;;;40.90;16.13;;;7.30;99.90;;;8.28;100.00;102890.94;4995507;28;20042;-76
2021/12/18 01:30:08;;;;;;;30.63;14.55;;;7.30;99.90;;;8.27;100.00;102889.25;4996107;28;20038;-80
2021/12/18 01:32:42;;;;;;;29.65;15.38;;;7.30;99.90;;;8.32;100.00;102891.19;4995402;28;20100;-79
2021/12/18 01:35:08;;;;;;;34.08;15.63;;;7.30;99.90;;;8.29;100.00;102888.97;4993876;28;20049;-77
2021/12/18 01:37:34;;;;;;;30.98;14.90;;;7.30;99.90;;;8.26;100.00;102886.75;4976089;28;20031;-79
2021/12/18 01:40:00;;;;;;;34.88;15.82;;;7.20;99.90;;;8.24;100.00;102887.06;4957945;28;20035;-77
2021/12/18 01:45:09;;;;;;;27.67;15.13;;;7.20;99.90;;;8.22;100.00;102880.13;4976934;28;20027;-77
2021/12/18 01:53:19;;;;;;;35.33;16.42;;;7.20;99.90;;;8.24;100.00;102872.28;4978754;28;20078;-78
2021/12/18 01:55:50;;;;;;;35.90;15.13;;;7.20;99.90;;;8.21;100.00;102862.56;4979234;28;20085;-77
2021/12/18 01:58:22;;;;;;;31.10;15.02;;;7.20;99.90;;;8.23;100.00;102871.47;4979547;28;20041;-77
2021/12/18 02:00:53;;;;;;;34.33;16.23;;;7.20;99.90;;;8.18;100.00;102862.31;4979533;28;20486;-78
2021/12/18 02:03:20;;;;;;;35.47;16.00;;;7.20;99.90;;;8.18;100.00;102865.94;4961921;28;20486;-79
2021/12/18 02:05:53;;;;;;;34.60;15.75;;;7.10;99.90;;;8.17;100.00;102866.22;4962330;28;20548;-77
2021/12/18 02:08:27;;;;;;;36.03;14.80;;;7.20;99.90;;;8.14;100.00;102862.06;4979553;28;20035;-78
2021/12/18 02:11:02;;;;;;;35.15;16.20;;;7.10;99.90;;;8.17;100.00;102855.91;4978809;28;20023;-77
2021/12/18 02:21:32;;;;;;;29.52;13.38;;;7.10;99.90;;;8.11;100.00;102851.50;4978847;28;20029;-77
2021/12/18 02:24:00;;;;;;;39.50;18.65;;;7.10;99.90;;;8.11;100.00;102851.50;4979539;28;20042;-78
2021/12/18 02:26:27;;;;;;;33.10;14.93;;;7.10;99.90;;;8.10;100.00;102849.81;4979348;28;20054;-77
2021/12/18 02:28:56;;;;;;;146.05;64.82;;;7.10;99.90;;;8.13;100.00;102854.81;4961852;28;20435;-78
2021/12/18 02:31:22;;;;;;;103.40;46.00;;;7.10;99.90;;;8.13;100.00;102852.03;4980977;28;20025;-78
2021/12/18 02:33:49;;;;;;;58.33;25.45;;;7.10;99.90;;;8.14;100.00;102861.22;4978329;28;20406;-78
2021/12/18 02:36:25;;;;;;;239.63;105.90;;;7.10;99.90;;;8.15;100.00;102857.31;4990106;28;20030;-78
2021/12/18 02:41:44;;;;;;;99.47;46.85;;;7.10;99.90;;;8.15;100.00;102851.75;4985384;28;20031;-78
2021/12/18 02:44:13;;;;;;;101.43;49.00;;;7.10;99.90;;;8.16;100.00;102853.41;4977507;28;20493;-76
2021/12/18 02:46:40;;;;;;;74.63;39.05;;;7.10;99.90;;;8.16;100.00;102847.84;4977278;28;20549;-78
2021/12/18 02:49:29;;;;;;;51.75;26.23;;;7.10;99.90;;;8.16;100.00;102847.84;4962349;28;20030;-78
2021/12/18 02:51:55;;;;;;;37.85;18.50;;;7.10;99.90;;;8.17;100.00;102836.41;4971701;28;20043;-77
2021/12/18 02:54:21;;;;;;;40.15;19.40;;;7.10;99.90;;;8.16;100.00;102847.84;4977900;28;20501;-77
2021/12/18 02:56:54;;;;;;;41.25;19.33;;;7.10;99.90;;;8.16;100.00;102834.75;4977016;28;20041;-77
2021/12/18 02:59:21;;;;;;;37.40;19.50;;;7.10;99.90;;;8.17;100.00;102830.84;4979015;28;20038;-78
2021/12/18 03:01:50;;;;;;;83.00;34.33;;;7.10;99.90;;;8.18;100.00;102832.53;4978675;28;20030;-77
2021/12/18 03:04:24;;;;;;;44.97;18.38;;;7.10;99.90;;;8.20;100.00;102840.56;4961551;28;20031;-76
2021/12/18 03:06:53;;;;;;;33.20;15.05;;;7.10;99.90;;;8.20;100.00;102838.63;4961467;28;20046;-78
2021/12/18 03:25:32;;;;;;;34.80;16.00;;;7.20;99.90;;;8.18;100.00;102824.19;4967270;28;20045;-78
2021/12/18 03:28:00;;;;;;;31.23;15.57;;;7.20;99.90;;;8.19;100.00;102825.81;4971935;29;20573;-76
2021/12/18 03:30:27;;;;;;;33.83;15.75;;;7.20;99.90;;;8.21;100.00;102825.53;4954772;29;20015;-76
2021/12/18 03:32:56;;;;;;;35.35;15.57;;;7.20;99.90;;;8.19;100.00;102824.97;4968301;29;20031;-78
2021/12/18 03:35:22;;;;;;;34.03;14.60;;;7.10;99.90;;;8.20;100.00;102816.34;4954223;29;20118;-78
2021/12/18 03:37:48;;;;;;;32.05;15.52;;;7.20;99.90;;;8.20;100.00;102818.31;4970292;29;20082;-77
2021/12/18 03:40:23;;;;;;;34.80;14.27;;;7.10;99.90;;;8.19;100.00;102819.41;4963352;29;20407;-77
2021/12/18 03:42:50;;;;;;;35.30;14.57;;;7.10;99.90;;;8.20;100.00;102815.53;4966026;29;20435;-77
2021/12/18 03:45:19;;;;;;;34.60;15.15;;;7.10;99.90;;;8.18;100.00;102813.03;4966408;28;20039;-78
2021/12/18 03:47:48;;;;;;;32.58;15.02;;;7.10;99.90;;;8.19;100.00;102817.47;4962693;29;20529;-78
2021/12/18 03:50:14;;;;;;;39.40;17.25;;;7.10;99.90;;;8.18;100.00;102815.81;4960194;29;20036;-77
2021/12/18 03:52:40;;;;;;;139.85;47.28;;;7.20;99.90;;;8.18;100.00;102817.78;4958853;29;20209;-78
2021/12/18 03:55:07;;;;;;;103.70;36.08;;;7.20;99.90;;;8.17;100.00;102814.16;4958183;28;20041;-79
2021/12/18 03:57:40;;;;;;;245.48;77.43;;;7.10;99.90;;;8.18;100.00;102821.41;4959925;29;20058;-79
2021/12/18 04:00:12;;;;;;;72.63;26.65;;;7.10;99.90;;;8.19;100.00;102824.97;4959836;29;20541;-78
2021/12/18 04:02:39;;;;;;;564.95;184.80;;;7.10;99.90;;;8.20;100.00;102826.66;4959617;29;20038;-78
2021/12/18 04:05:12;;;;;;;153.45;51.15;;;7.10;99.90;;;8.23;100.00;102823.28;4958588;28;20035;-79
2021/12/18 04:07:48;;;;;;;53.58;21.23;;;7.20;99.90;;;8.20;100.00;102826.66;4946043;29;20031;-78
2021/12/18 04:10:18;;;;;;;71.75;22.05;;;7.10;99.90;;;8.20;100.00;102838.63;4944268;29;20047;-79
2021/12/18 04:12:46;;;;;;;144.38;42.88;;;7.10;99.90;;;8.22;100.00;102825.25;4957054;29;20042;-78
2021/12/18 04:15:15;;;;;;;98.97;30.27;;;7.10;99.90;;;8.21;100.00;102826.38;4944778;28;20098;-79
2021/12/18 04:17:44;;;;;;;100.35;31.55;;;7.20;99.90;;;8.22;100.00;102830.00;4960184;29;20066;-78
2021/12/18 04:20:12;;;;;;;57.50;20.42;;;7.20;99.90;;;8.24;100.00;102823.00;4958028;29;20062;-78
2021/12/18 04:22:38;;;;;;;46.97;18.02;;;7.20;99.90;;;8.22;100.00;102832.78;4977503;28;20053;-78
2021/12/18 04:25:07;;;;;;;49.63;17.75;;;7.20;99.90;;;8.22;100.00;102833.59;4988327;28;20035;-78
2021/12/18 04:27:34;;;;;;;37.15;15.40;;;7.20;99.90;;;8.21;100.00;102825.53;4985878;28;20095;-78
2021/12/18 04:30:00;;;;;;;36.25;14.38;;;7.20;99.90;;;8.18;100.00;102826.13;4986384;28;20515;-78
2021/12/18 04:32:29;;;;;;;36.35;15.00;;;7.20;99.90;;;8.18;100.00;102826.13;4986885;28;20046;-78
2021/12/18 04:34:57;;;;;;;42.53;15.75;;;7.20;99.90;;;8.19;100.00;102823.03;4987478;28;20106;-78
2021/12/18 04:37:23;;;;;;;31.30;13.65;;;7.10;99.90;;;8.20;100.00;102823.88;4990423;28;20038;-78
2021/12/18 04:39:52;;;;;;;34.33;14.65;;;7.20;99.90;;;8.18;100.00;102812.22;4984533;28;20058;-78
2021/12/18 04:42:18;;;;;;;36.80;14.15;;;7.20;99.90;;;8.19;100.00;102811.06;4976809;28;20514;-78
2021/12/18 04:44:50;;;;;;;35.22;14.32;;;7.10;99.90;;;8.18;100.00;102813.03;4976324;28;20447;-77
2021/12/18 04:47:16;;;;;;;36.47;13.90;;;7.10;99.90;;;8.18;100.00;102817.78;4976375;28;20030;-78
2021/12/18 04:49:42;;;;;;;33.20;13.75;;;7.10;99.90;;;8.19;100.00;102816.63;4976847;28;20042;-76
2021/12/18 04:52:08;;;;;;;32.72;14.27;;;7.10;99.90;;;8.18;100.00;102821.41;4977839;28;20107;-77
2021/12/18 04:54:34;;;;;;;29.65;13.25;;;7.10;99.90;;;8.18;100.00;102820.56;4974013;28;20398;-78
2021/12/18 04:57:00;;;;;;;37.25;13.52;;;7.10;99.90;;;8.19;100.00;102822.19;4974472;28;20028;-76
2021/12/18 04:59:29;;;;;;;41.67;15.82;;;7.10;99.90;;;8.19;100.00;102822.19;4974204;28;20434;-77
2021/12/18 05:01:56;;;;;;;29.58;12.63;;;7.10;99.90;;;8.18;100.00;102812.22;4974399;28;20031;-76
2021/12/18 05:04:22;;;;;;;31.92;12.93;;;7.10;99.90;;;8.18;100.00;102818.63;4974478;28;20031;-76
2021/12/18 05:06:51;;;;;;;29.80;12.00;;;7.10;99.90;;;8.16;100.00;102820.00;4974941;28;20035;-76
2021/12/18 05:09:18;;;;;;;28.98;11.93;;;7.10;99.90;;;8.17;100.00;102819.72;4975171;28;20050;-76
2021/12/18 05:11:45;;;;;;;25.45;11.52;;;7.10;99.90;;;8.16;100.00;102818.03;4975153;28;20019;-78
2021/12/18 05:14:14;;;;;;;29.63;12.38;;;7.10;99.90;;;8.17;100.00;102816.94;4978758;28;20406;-78
2021/12/18 05:16:40;;;;;;;29.00;12.02;;;7.10;99.90;;;8.15;100.00;102813.63;4975948;28;20031;-80
2021/12/18 05:19:06;;;;;;;28.23;11.93;;;7.10;99.90;;;8.17;100.00;102816.09;4979495;28;20077;-77
2021/12/18 05:21:35;;;;;;;35.65;13.13;;;7.10;99.90;;;8.16;100.00;102814.44;4978102;28;20057;-78
2021/12/18 05:24:01;;;;;;;26.95;12.45;;;7.10;99.90;;;8.16;100.00;102811.66;4964442;29;20557;-78
2021/12/18 05:26:36;;;;;;;31.23;12.60;;;7.10;99.90;;;8.14;100.00;102811.94;4963954;28;20043;-78
2021/12/18 05:29:03;;;;;;;27.27;10.65;;;7.10;99.90;;;8.15;100.00;102819.19;4962628;29;20258;-78
2021/12/18 05:31:33;;;;;;;28.50;10.80;;;7.10;99.90;;;8.14;100.00;102825.03;4961174;29;20035;-75
2021/12/18 05:34:02;;;;;;;25.92;10.18;;;7.10;99.90;;;8.15;100.00;102821.13;4958005;29;20487;-77
2021/12/18 05:36:41;;;;;;;22.75;10.13;;;7.10;99.90;;;8.16;100.00;102828.34;4942357;29;20407;-78
2021/12/18 05:39:10;;;;;;;29.20;10.48;;;7.10;99.90;;;8.15;100.00;102824.75;4958853;29;20106;-78
2021/12/18 05:41:38;;;;;;;26.05;10.93;;;7.10;99.90;;;8.15;100.00;102818.34;4959980;29;20051;-77
2021/12/18 05:44:08;;;;;;;26.20;9.80;;;7.10;99.90;;;8.15;100.00;102827.53;4959840;29;20324;-78
2021/12/18 05:46:35;;;;;;;26.88;10.02;;;7.10;99.90;;;8.15;100.00;102827.53;4959762;28;20035;-77
2021/12/18 05:49:03;;;;;;;28.67;10.15;;;7.10;99.90;;;8.14;100.00;102825.88;4942530;29;20126;-77
2021/12/18 05:51:32;;;;;;;23.15;9.98;;;7.10;99.90;;;8.15;100.00;102829.50;4959503;29;20087;-76
2021/12/18 05:53:58;;;;;;;24.40;9.50;;;7.10;99.90;;;8.15;100.00;102833.09;4959341;29;20035;-77
2021/12/18 05:56:28;;;;;;;25.02;8.95;;;7.10;99.90;;;8.16;100.00;102837.53;4957858;28;20031;-77
2021/12/18 05:58:54;;;;;;;29.95;11.70;;;7.10;99.90;;;8.19;100.00;102836.94;4959263;29;20031;-78
2021/12/18 06:01:21;;;;;;;30.48;10.98;;;7.10;99.90;;;8.19;100.00;102836.94;4961692;29;20031;-78
2021/12/18 06:03:48;;;;;;;28.70;10.75;;;7.10;99.90;;;8.18;100.00;102840.03;4959679;29;20031;-77
2021/12/18 06:06:15;;;;;;;28.65;10.45;;;7.10;99.90;;;8.19;100.00;102838.91;4959944;28;20418;-76
2021/12/18 06:08:42;;;;;;;30.88;11.32;;;7.10;99.90;;;8.20;100.00;102833.06;4959129;29;20395;-77
2021/12/18 06:11:21;;;;;;;31.20;11.95;;;7.10;99.90;;;8.19;100.00;102834.16;4960241;29;20060;-77
2021/12/18 06:13:51;;;;;;;44.35;17.45;;;7.20;99.90;;;8.16;100.00;102826.41;4958914;29;20023;-78
2021/12/18 06:16:21;;;;;;;51.17;14.80;;;7.10;99.90;;;8.17;100.00;102828.06;4960226;28;20031;-78
2021/12/18 06:18:50;;;;;;;45.58;15.88;;;7.20;99.90;;;8.19;100.00;102825.81;4959647;29;20090;-78
2021/12/18 06:21:19;;;;;;;46.55;15.85;;;7.20;99.90;;;8.20;100.00;102826.66;4962779;28;20027;-77
2021/12/18 06:23:52;;;;;;;47.78;15.80;;;7.20;99.90;;;8.21;100.00;102822.75;4980094;28;20569;-81
2021/12/18 06:26:21;;;;;;;49.75;16.75;;;7.20;99.90;;;8.21;100.00;102828.31;4980277;28;20443;-78
2021/12/18 06:28:48;;;;;;;38.80;15.05;;;7.10;99.90;;;8.21;100.00;102828.31;4979075;28;20038;-79
2021/12/18 06:31:16;;;;;;;40.72;14.75;;;7.20;99.90;;;8.21;100.00;102826.38;4963100;28;20057;-78
2021/12/18 06:33:42;;;;;;;43.38;13.57;;;7.20;99.90;;;8.21;100.00;102826.38;4980372;28;20035;-78
2021/12/18 06:36:11;;;;;;;40.92;13.57;;;7.20;99.90;;;8.22;100.00;102827.22;4980090;28;20033;-78
2021/12/18 06:38:37;;;;;;;42.58;14.10;;;7.20;99.90;;;8.22;100.00;102818.88;4982893;28;20042;-79
2021/12/18 06:41:06;;;;;;;38.08;12.05;;;7.10;99.90;;;8.22;100.00;102824.44;4979569;28;20030;-77
2021/12/18 06:43:31;;;;;;;37.38;12.05;;;7.20;99.90;;;8.22;100.00;102824.44;4982269;28;20034;-79
2021/12/18 06:45:57;;;;;;;37.55;13.55;;;7.20;99.90;;;8.21;100.00;102836.69;4982415;28;20099;-80
2021/12/18 06:48:23;;;;;;;28.45;10.18;;;7.10;99.90;;;8.21;100.00;102833.91;4982458;28;20023;-79
2021/12/18 06:50:52;;;;;;;30.33;11.05;;;7.10;99.90;;;8.20;100.00;102824.72;4981834;28;20098;-78
2021/12/18 06:53:18;;;;;;;34.05;12.13;;;7.20;99.90;;;8.21;100.00;102831.94;4984801;28;20045;-78
2021/12/18 06:55:47;;;;;;;30.50;10.80;;;7.20;99.90;;;8.21;100.00;102826.38;4964695;28;20092;-79
2021/12/18 06:58:17;;;;;;;33.38;12.05;;;7.20;99.90;;;8.22;100.00;102835.56;4968857;28;20051;-79
2021/12/18 07:00:46;;;;;;;33.22;10.45;;;7.20;99.90;;;8.22;100.00;102835.56;4993016;28;20038;-79
2021/12/18 07:03:12;;;;;;;29.50;11.75;;;7.20;99.90;;;8.22;100.00;102838.34;4992944;28;20035;-78
2021/12/18 07:05:38;;;;;;;30.40;10.50;;;7.10;99.90;;;8.21;100.00;102831.94;4979653;28;20050;-78
2021/12/18 07:08:04;;;;;;;36.35;11.68;;;7.10;99.90;;;8.23;100.00;102823.28;4979004;28;20097;-78
2021/12/18 07:10:31;;;;;;;26.10;9.98;;;7.20;99.90;;;8.24;100.00;102830.53;4979878;28;20492;-78
2021/12/18 07:12:58;;;;;;;29.98;10.05;;;7.20;99.90;;;8.24;100.00;102827.75;4980033;28;20027;-78
2021/12/18 07:15:25;;;;;;;31.17;10.63;;;7.20;99.90;;;8.26;100.00;102822.72;4978583;28;20035;-77
2021/12/18 07:17:56;;;;;;;31.05;10.68;;;7.20;99.90;;;8.25;100.00;102832.22;4978484;28;20137;-78
2021/12/18 07:20:22;;;;;;;32.92;10.32;;;7.20;99.90;;;8.25;100.00;102824.66;4978210;28;20023;-78
2021/12/18 07:22:48;;;;;;;29.42;10.73;;;7.20;99.90;;;8.25;100.00;102827.44;4965271;28;20109;-78
2021/12/18 07:27:46;;;;;;;28.90;10.25;;;7.20;99.90;;;8.28;100.00;102828.88;5035136;28;20152;-87
2021/12/18 07:30:13;;;;;;;29.00;11.18;;;7.20;99.90;;;8.30;100.00;102832.19;5018832;28;20134;-83
2021/12/18 07:32:40;;;;;;;33.55;10.63;;;7.20;99.90;;;8.30;100.00;102833.03;5036901;28;20108;-83
2021/12/18 07:35:08;;;;;;;27.02;10.30;;;7.20;99.90;;;8.31;100.00;102834.69;5037415;28;20025;-84
2021/12/18 07:37:34;;;;;;;44.05;13.15;;;7.20;99.90;;;8.30;100.00;102829.41;4999840;28;20026;-87
2021/12/18 07:40:09;;;;;;;40.13;13.00;;;7.20;99.90;;;8.29;100.00;102836.91;5017278;28;20038;-82
2021/12/18 07:42:39;;;;;;;38.35;12.52;;;7.20;99.90;;;8.29;100.00;102831.34;4999091;28;20033;-85
2021/12/18 07:45:06;;;;;;;42.35;12.27;;;7.20;99.90;;;8.28;100.00;102840.81;5016396;28;20030;-84
2021/12/18 07:47:32;;;;;;;43.55;13.73;;;7.20;99.90;;;8.27;100.00;102836.34;4998969;28;20049;-82
2021/12/18 07:49:58;;;;;;;41.67;13.00;;;7.20;99.90;;;8.29;100.00;102838.88;5017710;28;20033;-83
2021/12/18 07:52:27;;;;;;;38.20;12.80;;;7.20;99.90;;;8.31;100.00;102840.25;5016969;28;20037;-82
2021/12/18 07:54:53;;;;;;;43.88;14.77;;;7.20;99.90;;;8.30;100.00;102833.03;5016583;28;20030;-83
2021/12/18 07:57:19;;;;;;;37.97;11.95;;;7.20;99.90;;;8.34;100.00;102834.13;5017533;28;20029;-85
2021/12/18 07:59:45;;;;;;;39.53;12.68;;;7.20;99.90;;;8.35;100.00;102835.75;5018738;28;20026;-84
2021/12/18 08:02:11;;;;;;;45.38;13.95;;;7.20;99.90;;;8.37;100.00;102835.47;5000138;28;20025;-84
2021/12/18 08:04:37;;;;;;;57.58;15.40;;;7.30;99.90;;;8.38;100.00;102834.38;4997859;28;20095;-84
2021/12/18 08:07:03;;;;;;;55.13;15.82;;;7.30;99.90;;;8.41;100.00;102833.78;5015848;28;20028;-83
2021/12/18 08:09:29;;;;;;;45.47;14.00;;;7.30;99.90;;;8.42;100.00;102836.25;4999482;28;20045;-82
2021/12/18 08:11:55;;;;;;;43.95;13.60;;;7.30;99.90;;;8.42;100.00;102827.91;5017597;28;20084;-81
2021/12/18 08:14:21;;;;;;;48.70;14.27;;;7.30;99.90;;;8.44;100.00;102830.41;4999401;28;20103;-81
2021/12/18 08:16:48;;;;;;;62.25;16.55;;;7.30;99.90;;;8.48;100.00;102834.25;4999425;28;20425;-84
2021/12/18 08:19:20;;;;;;;62.25;19.70;;;7.30;99.90;;;8.48;100.00;102823.13;4999607;28;20502;-83
2021/12/18 08:21:45;;;;;;;51.60;16.92;;;7.40;99.90;;;8.50;100.00;102833.97;5005289;28;20112;-82
2021/12/18 08:24:11;;;;;;;58.63;16.98;;;7.40;99.90;;;8.52;100.00;102835.34;5018223;28;20419;-81
2021/12/18 08:26:37;;;;;;;59.63;17.27;;;7.40;99.90;;;8.55;100.00;102833.91;5036062;28;20021;-82
2021/12/18 08:29:03;;;;;;;51.72;16.48;;;7.40;99.90;;;8.56;100.00;102836.44;5018448;28;20021;-85
2021/12/18 08:31:29;;;;;;;58.85;16.92;;;7.40;99.90;;;8.56;100.00;102836.44;5018937;28;20032;-81
2021/12/18 08:33:55;;;;;;;51.95;15.90;;;7.40;99.90;;;8.57;100.00;102834.47;5017945;28;20022;-83
2021/12/18 08:36:21;;;;;;;54.28;16.23;;;7.40;99.90;;;8.58;100.00;102842.53;5036491;28;20053;-85
2021/12/18 08:38:49;;;;;;;50.47;15.95;;;7.50;99.90;;;8.61;100.00;102829.97;5019463;28;20026;-84
2021/12/18 08:41:19;;;;;;;55.65;16.23;;;7.50;99.90;;;8.61;100.00;102835.53;5018201;28;20133;-82
2021/12/18 08:43:46;;;;;;;52.45;16.23;;;7.50;99.90;;;8.65;100.00;102843.03;5017526;28;20026;-84
2021/12/18 08:46:13;;;;;;;40.55;14.00;;;7.50;99.90;;;8.61;100.00;102832.75;5036457;28;20099;-79
2021/12/18 08:48:39;;;;;;;37.35;12.77;;;7.50;99.90;;;8.56;100.00;102841.16;5036341;28;20021;-84
2021/12/18 08:51:05;;;;;;;37.25;12.52;;;7.50;99.90;;;8.58;100.00;102836.13;5018329;28;20033;-82
2021/12/18 08:53:31;;;;;;;32.85;11.65;;;7.50;99.90;;;8.57;100.00;102842.84;5040525;28;20026;-82
2021/12/18 08:56:00;;;;;;;35.03;10.55;;;7.50;99.90;;;8.60;100.00;102845.03;5025091;28;20064;-84
2021/12/18 08:58:29;;;;;;;27.33;10.48;;;7.40;99.90;;;8.60;100.00;102837.53;5029507;28;20036;-85
2021/12/18 09:00:56;;;;;;;26.80;11.30;;;7.50;99.90;;;8.56;100.00;102841.16;5050476;28;20035;-81
2021/12/18 09:03:22;;;;;;;27.92;9.93;;;7.40;99.90;;;8.58;100.00;102834.16;5053998;28;20033;-83
2021/12/18 09:05:48;;;;;;;22.50;9.30;;;7.40;99.90;;;8.56;100.00;102836.44;5054354;28;20029;-85
2021/12/18 09:08:14;;;;;;;24.25;10.38;;;7.40;99.90;;;8.60;100.00;102836.69;5048794;28;20504;-81
2021/12/18 09:10:40;;;;;;;22.13;9.05;;;7.40;99.90;;;8.56;100.00;102830.03;5022299;28;20037;-81
2021/12/18 09:13:07;;;;;;;25.63;9.63;;;7.40;99.90;;;8.60;100.00;102828.31;5038783;28;20025;-81
2021/12/18 09:15:33;;;;;;;22.55;9.20;;;7.50;99.90;;;8.61;100.00;102839.16;5020966;28;20026;-81
2021/12/18 09:17:59;;;;;;;21.70;9.13;;;7.50;99.90;;;8.64;100.00;102833.00;5037452;28;20041;-81
2021/12/18 09:20:25;;;;;;;22.30;9.10;;;7.50;99.90;;;8.66;100.00;102835.50;5020892;28;20127;-81
2021/12/18 09:22:59;;;;;;;20.85;8.93;;;7.50;99.90;;;8.70;100.00;102834.63;5024224;28;20069;-82
2021/12/18 09:25:29;;;;;;;24.63;8.95;;;7.50;99.90;;;8.68;100.00;102836.03;5017268;28;20030;-81
2021/12/18 09:27:56;;;;;;;18.50;8.40;;;7.50;99.90;;;8.69;100.00;102843.28;5001342;28;20022;-80
2021/12/18 09:30:24;;;;;;;22.50;8.27;;;7.50;99.90;;;8.69;100.00;102838.53;5019396;28;20388;-83
2021/12/18 09:32:51;;;;;;;18.23;8.13;;;7.50;99.90;;;8.74;100.00;102837.66;5001842;28;20071;-84
2021/12/18 09:35:17;;;;;;;16.05;7.13;;;7.50;99.90;;;8.67;100.00;102842.75;5001946;28;20033;-82
2021/12/18 09:37:47;;;;;;;16.17;7.60;;;7.50;99.90;;;8.62;100.00;102832.47;5007721;28;20480;-82
2021/12/18 09:40:16;;;;;;;16.50;7.45;;;7.40;99.90;;;8.62;100.00;102840.81;5007920;28;20026;-82
2021/12/18 09:42:42;;;;;;;17.42;7.55;;;7.40;99.90;;;8.67;100.00;102835.19;5004761;28;20030;-85
2021/12/18 09:45:09;;;;;;;16.00;7.50;;;7.40;99.90;;;8.62;100.00;102837.22;5021458;28;20123;-79
2021/12/18 09:47:35;;;;;;;20.35;8.68;;;7.40;99.90;;;8.67;100.00;102834.41;5023075;28;20456;-80
2021/12/18 09:50:01;;;;;;;18.75;7.82;;;7.50;99.90;;;8.67;100.00;102831.59;5018788;28;20037;-80
2021/12/18 09:52:29;;;;;;;18.98;8.57;;;7.40;99.90;;;8.70;100.00;102833.81;5035841;28;20113;-80
2021/12/18 09:54:58;;;;;;;21.33;8.65;;;7.50;99.90;;;8.73;100.00;102831.25;5007769;28;20030;-81
2021/12/18 09:57:26;;;;;;;21.40;8.63;;;7.50;99.90;;;8.78;100.00;102834.00;5021098;28;20029;-80
2021/12/18 09:59:53;;;;;;;17.48;8.27;;;7.50;99.90;;;8.75;100.00;102834.59;5019301;28;20040;-80
2021/12/18 10:02:19;;;;;;;17.85;7.40;;;7.60;99.90;;;8.82;100.00;102828.66;5019300;28;20026;-80
2021/12/18 10:04:46;;;;;;;16.48;7.95;;;7.60;99.90;;;8.88;100.00;102821.91;5001295;28;20038;-79
2021/12/18 10:07:27;;;;;;;21.92;8.18;;;7.60;99.90;;;8.94;100.00;102820.72;5000882;28;20664;-81
2021/12/18 10:10:00;;;;;;;17.52;7.30;;;7.70;99.90;;;8.96;100.00;102824.88;5001060;28;20504;-79
2021/12/18 10:12:32;;;;;;;16.25;6.20;;;7.70;99.90;;;9.01;100.00;102818.44;5018591;28;20030;-80
2021/12/18 10:15:16;;;;;;;16.20;7.15;;;7.70;99.90;;;9.04;100.00;102817.84;5018450;28;20535;-79
2021/12/18 10:17:42;;;;;;;21.15;7.78;;;7.70;99.90;;;8.99;100.00;102807.56;5017605;28;20455;-78
2021/12/18 10:20:16;;;;;;;17.02;7.35;;;7.70;99.90;;;8.98;100.00;102810.66;4999896;28;20030;-78
2021/12/18 10:22:56;;;;;;;15.75;7.50;;;7.70;99.90;;;8.98;100.00;102805.09;5030775;28;20074;-81
2021/12/18 10:25:30;;;;;;;16.92;7.13;;;7.70;99.90;;;9.02;100.00;102801.41;5019718;28;20030;-80
2021/12/18 10:28:13;;;;;;;17.55;7.55;;;7.80;99.90;;;9.06;100.00;102806.38;5037757;28;20056;-82
2021/12/18 10:30:54;;;;;;;23.88;7.85;;;7.80;99.90;;;9.11;100.00;102801.59;5019737;28;20038;-80
2021/12/18 10:33:29;;;;;;;16.23;6.50;;;7.80;99.90;;;9.08;100.00;102801.34;5019547;28;20142;-80
2021/12/18 10:36:00;;;;;;;14.60;6.63;;;7.80;99.90;;;9.09;100.00;102792.69;5019858;28;20462;-78
2021/12/18 10:38:50;;;;;;;17.92;6.50;;;7.80;99.90;;;9.12;100.00;102799.66;5037710;28;20055;-81
2021/12/18 10:41:37;;;;;;;11.85;5.55;;;7.90;99.90;;;9.09;100.00;102805.78;5020092;28;20034;-83
2021/12/18 10:44:12;;;;;;;;;;;7.80;99.90;;;9.11;100.00;102803.56;5019917;28;20029;-82
2021/12/18 10:46:45;;;;;;;23.13;7.38;;;7.80;99.90;;;9.02;100.00;102796.97;5018975;28;19916;-80
2021/12/18 10:49:17;;;;;;;17.52;6.95;;;7.80;99.90;;;8.97;100.00;102793.09;5037464;28;20030;-80
2021/12/18 10:51:48;;;;;;;18.27;7.47;;;7.80;99.90;;;8.96;100.00;102790.59;5018656;28;20036;-78
2021/12/18 10:54:23;;;;;;;18.02;8.35;;;7.70;99.90;;;8.99;100.00;102790.00;5036892;28;20029;-80
2021/12/18 10:56:55;;;;;;;22.17;8.85;;;7.70;99.90;;;8.96;100.00;102787.81;5019421;28;20099;-80
2021/12/18 10:59:27;;;;;;;21.67;9.13;;;7.70;99.90;;;8.95;100.00;102781.44;5037748;28;20420;-79
2021/12/18 11:01:59;;;;;;;22.52;9.02;;;7.70;99.90;;;8.91;100.00;102785.94;5019412;28;20474;-80
2021/12/18 11:04:39;;;;;;;26.85;8.10;;;7.70;99.90;;;8.91;100.00;102790.66;5036301;28;20044;-82
2021/12/18 11:07:41;;;;;;;20.10;7.57;;;7.70;99.90;;;8.90;100.00;102781.47;5037079;28;20021;-81
2021/12/18 11:15:56;;;;;;;15.70;7.40;;;7.70;99.90;;;8.91;100.00;102772.00;5036577;28;20113;-80